Time;durP1;ratioP1;P1;durP2;ratioP2;P2;SDS_P1;SDS_P2;PMS_P1;PMS_P2;Temp;Humidity;BMP_temperature;BMP_pressure;BME280_temperature;BME280_humidity;BME280_pressure;Samples;Min_cycle;Max_cycle;Signal;HPM_P1;HPM_P2
2023/12/17 00:01:34;;;;;;;2.77;1.27;;;0.80;99.90;;;;;;5013220;28;20198;-82
2023/12/17 00:04:00;;;;;;;3.67;2.53;;;0.80;99.90;;;;;;5015023;28;20202;-84
2023/12/17 00:06:25;;;;;;;3.70;2.40;;;0.80;99.90;;;;;;5010900;28;20194;-83
2023/12/17 00:08:51;;;;;;;12.43;2.23;;;0.90;99.90;;;;;;4993181;28;20202;-83
2023/12/17 00:11:16;;;;;;;2.53;2.33;;;0.90;99.90;;;;;;4996606;28;20179;-83
2023/12/17 00:13:42;;;;;;;2.67;2.47;;;1.00;99.90;;;;;;5012751;28;20210;-83
2023/12/17 00:16:08;;;;;;;9.63;2.83;;;0.90;99.90;;;;;;5012161;28;20178;-83
2023/12/17 00:18:34;;;;;;;2.33;1.70;;;0.90;99.90;;;;;;4997355;28;20178;-83
2023/12/17 00:20:59;;;;;;;8.33;1.67;;;0.90;99.90;;;;;;5013281;28;20459;-83
2023/12/17 00:23:25;;;;;;;5.27;2.67;;;0.80;99.90;;;;;;4996256;28;20194;-84
2023/12/17 00:25:53;;;;;;;7.23;3.03;;;0.70;99.90;;;;;;4995897;28;20174;-87
2023/12/17 00:28:19;;;;;;;3.90;2.30;;;0.60;99.90;;;;;;4993049;28;20178;-87
2023/12/17 00:30:45;;;;;;;7.63;2.93;;;0.50;99.90;;;;;;4997098;28;20175;-86
2023/12/17 00:33:11;;;;;;;3.97;2.07;;;0.50;99.90;;;;;;5012465;28;20199;-87
2023/12/17 00:35:36;;;;;;;10.13;2.00;;;0.40;99.90;;;;;;5012850;28;20709;-84
2023/12/17 00:38:02;;;;;;;7.20;2.20;;;0.40;99.90;;;;;;4995735;28;20502;-85
2023/12/17 00:40:27;;;;;;;2.20;1.27;;;0.50;99.90;;;;;;5012358;28;20665;-85
2023/12/17 00:42:53;;;;;;;3.50;2.10;;;0.50;99.90;;;;;;5016129;28;20660;-85
2023/12/17 00:45:18;;;;;;;3.23;1.90;;;0.50;99.90;;;;;;5000101;28;20199;-85
2023/12/17 00:47:44;;;;;;;2.73;1.37;;;0.50;99.90;;;;;;4994814;28;20227;-85
2023/12/17 00:50:09;;;;;;;1.60;1.13;;;0.50;99.90;;;;;;4997086;28;20194;-85
2023/12/17 00:52:35;;;;;;;2.27;2.07;;;0.60;99.90;;;;;;5013272;28;20201;-85
2023/12/17 00:55:01;;;;;;;2.13;1.23;;;0.70;99.90;;;;;;5014932;28;20668;-85
2023/12/17 00:57:26;;;;;;;9.47;3.33;;;0.70;99.90;;;;;;5002950;28;20182;-85
2023/12/17 00:59:52;;;;;;;3.53;3.20;;;0.70;99.90;;;;;;5012521;28;20269;-86
2023/12/17 01:02:17;;;;;;;8.00;2.97;;;0.70;99.90;;;;;;5016987;28;20187;-85
2023/12/17 01:04:43;;;;;;;6.30;2.50;;;0.70;99.90;;;;;;5014048;28;20198;-86
2023/12/17 01:07:08;;;;;;;7.10;4.70;;;0.70;99.90;;;;;;4997823;28;20179;-86
2023/12/17 01:09:34;;;;;;;8.13;3.47;;;0.70;99.90;;;;;;5000050;28;20198;-85
2023/12/17 01:12:02;;;;;;;5.30;4.77;;;0.70;99.90;;;;;;5019467;28;20179;-86
2023/12/17 01:14:32;;;;;;;11.27;3.70;;;0.70;99.90;;;;;;5016701;28;20207;-85
2023/12/17 01:16:58;;;;;;;34.00;3.63;;;0.70;99.90;;;;;;4997045;28;20175;-85
2023/12/17 01:19:23;;;;;;;2.93;2.70;;;0.70;99.90;;;;;;5014577;28;20182;-85
2023/12/17 01:21:49;;;;;;;5.50;2.43;;;0.70;99.90;;;;;;4996858;28;20805;-85
2023/12/17 01:24:14;;;;;;;7.50;2.70;;;0.70;99.90;;;;;;5013672;28;20904;-85
2023/12/17 01:26:40;;;;;;;2.87;2.23;;;0.70;99.90;;;;;;5015556;28;20251;-85
2023/12/17 01:29:05;;;;;;;7.33;3.23;;;0.60;99.90;;;;;;5015975;28;20784;-84
2023/12/17 01:31:31;;;;;;;4.97;3.90;;;0.50;99.90;;;;;;5014559;28;20638;-84
2023/12/17 01:33:56;;;;;;;2.60;2.23;;;0.40;99.90;;;;;;5016280;28;20199;-84
2023/12/17 01:36:22;;;;;;;4.37;2.63;;;0.30;99.90;;;;;;5017110;28;20183;-83
2023/12/17 01:38:47;;;;;;;3.50;2.60;;;0.30;99.90;;;;;;5016064;28;20194;-83
2023/12/17 01:41:13;;;;;;;3.50;1.97;;;0.30;99.90;;;;;;5013614;28;20195;-84
2023/12/17 01:43:38;;;;;;;2.87;1.97;;;0.30;99.90;;;;;;4997335;28;20587;-84
2023/12/17 01:46:04;;;;;;;3.83;1.90;;;0.30;99.90;;;;;;5012987;28;20210;-84
2023/12/17 01:48:30;;;;;;;2.93;2.70;;;0.30;99.90;;;;;;4998016;28;20198;-83
2023/12/17 01:50:56;;;;;;;4.65;2.45;;;0.40;99.90;;;;;;5012958;28;20425;-84
2023/12/17 01:53:23;;;;;;;6.60;3.80;;;0.30;99.90;;;;;;5015485;28;20190;-84
2023/12/17 01:55:50;;;;;;;6.82;4.68;;;0.30;99.90;;;;;;5015645;28;20429;-84
2023/12/17 01:58:16;;;;;;;8.48;4.70;;;0.20;99.90;;;;;;5016472;28;20265;-84
2023/12/17 02:00:43;;;;;;;7.10;5.68;;;0.10;99.90;;;;;;5012011;28;20193;-83
2023/12/17 02:03:09;;;;;;;8.13;4.30;;;0.10;99.90;;;;;;5013883;28;20186;-83
2023/12/17 02:05:36;;;;;;;4.07;3.00;;;0.10;99.90;;;;;;5016255;28;20216;-83
2023/12/17 02:08:03;;;;;;;4.22;2.50;;;0.10;99.90;;;;;;5013961;28;20223;-84
2023/12/17 02:10:29;;;;;;;3.35;2.95;;;0.10;99.90;;;;;;5013686;28;20194;-84
2023/12/17 02:12:54;;;;;;;9.07;3.38;;;0.20;99.90;;;;;;5083291;28;20174;-84
2023/12/17 02:15:20;;;;;;;6.63;4.50;;;0.20;99.90;;;;;;5016830;28;20198;-83
2023/12/17 02:17:45;;;;;;;6.90;3.40;;;0.10;99.90;;;;;;4993430;28;20615;-84
2023/12/17 02:20:11;;;;;;;7.90;3.07;;;0.10;99.90;;;;;;5013626;28;20201;-83
2023/12/17 02:22:38;;;;;;;4.97;3.70;;;0.10;99.90;;;;;;5003695;28;20180;-83
2023/12/17 02:25:04;;;;;;;5.15;3.10;;;0.10;99.90;;;;;;5018879;28;20455;-84
2023/12/17 02:27:30;;;;;;;8.65;4.07;;;0.20;99.90;;;;;;5000645;28;20269;-84
2023/12/17 02:29:55;;;;;;;5.27;3.43;;;0.20;99.90;;;;;;5015252;28;20379;-83
2023/12/17 02:32:22;;;;;;;3.93;2.33;;;0.30;99.90;;;;;;5015097;28;20597;-84
2023/12/17 02:34:48;;;;;;;4.72;3.45;;;0.30;99.90;;;;;;5015464;28;20230;-84
2023/12/17 02:37:15;;;;;;;4.57;3.50;;;0.30;99.90;;;;;;5016836;28;20182;-83
2023/12/17 02:39:40;;;;;;;7.25;3.72;;;0.20;99.90;;;;;;5005092;28;20174;-83
2023/12/17 02:42:06;;;;;;;5.03;3.50;;;0.20;99.90;;;;;;5019369;28;20205;-83
2023/12/17 02:44:32;;;;;;;8.33;5.07;;;0.20;99.90;;;;;;5017336;28;20202;-83
2023/12/17 02:46:58;;;;;;;9.47;4.57;;;0.20;99.90;;;;;;5018150;28;20422;-83
2023/12/17 02:49:24;;;;;;;5.65;3.42;;;0.20;99.90;;;;;;5006252;28;20210;-83
2023/12/17 02:51:50;;;;;;;9.93;4.47;;;0.30;99.90;;;;;;5015792;28;20171;-83
2023/12/17 02:54:16;;;;;;;8.07;3.72;;;0.20;99.90;;;;;;5009611;28;20198;-83
2023/12/17 02:56:42;;;;;;;5.57;4.10;;;0.20;99.90;;;;;;5017388;28;20543;-83
2023/12/17 02:59:09;;;;;;;6.10;3.53;;;0.20;99.90;;;;;;4992424;28;20182;-84
2023/12/17 03:01:34;;;;;;;6.88;3.35;;;0.30;99.90;;;;;;5019231;28;20213;-84
2023/12/17 03:04:03;;;;;;;6.80;3.23;;;0.20;99.90;;;;;;4999790;28;20198;-85
2023/12/17 03:06:28;;;;;;;7.85;3.70;;;0.20;99.90;;;;;;4997564;28;20186;-85
2023/12/17 03:08:54;;;;;;;16.33;3.40;;;0.20;99.90;;;;;;5012175;28;20199;-85
2023/12/17 03:11:19;;;;;;;6.17;3.00;;;0.20;99.90;;;;;;4996016;28;20185;-86
2023/12/17 03:13:45;;;;;;;12.20;3.97;;;0.20;99.90;;;;;;5010243;28;20255;-86
2023/12/17 03:16:10;;;;;;;5.77;4.77;;;0.20;99.90;;;;;;5011409;28;20170;-86
2023/12/17 03:18:36;;;;;;;8.57;4.67;;;0.20;99.90;;;;;;5010465;28;20194;-86
2023/12/17 03:21:03;;;;;;;5.73;4.10;;;0.20;99.90;;;;;;5009514;28;20591;-86
2023/12/17 03:23:29;;;;;;;2.03;1.88;;;0.20;99.90;;;;;;5013422;28;20198;-86
2023/12/17 03:25:54;;;;;;;2.93;1.60;;;0.20;99.90;;;;;;5007200;28;20195;-86
2023/12/17 03:28:21;;;;;;;1.67;1.30;;;0.10;99.90;;;;;;4996581;28;20217;-85
2023/12/17 03:30:46;;;;;;;7.00;2.65;;;0.00;99.90;;;;;;5014738;28;20859;-86
2023/12/17 03:33:12;;;;;;;3.63;2.20;;;0.00;99.90;;;;;;4993672;28;20221;-85
2023/12/17 03:35:37;;;;;;;1.53;1.40;;;-0.10;99.90;;;;;;4999589;28;20170;-86
2023/12/17 03:38:06;;;;;;;5.77;4.30;;;-0.10;99.90;;;;;;5013415;28;20185;-86
2023/12/17 03:40:32;;;;;;;4.82;3.47;;;0.00;99.90;;;;;;5014876;28;20171;-86
2023/12/17 03:42:58;;;;;;;6.47;3.65;;;0.90;99.90;;;;;;5015057;28;20190;-86
2023/12/17 03:45:24;;;;;;;9.50;4.35;;;-0.10;99.90;;;;;;4994109;28;20822;-86
2023/12/17 03:47:50;;;;;;;5.43;3.37;;;-0.10;99.90;;;;;;5013166;28;20182;-86
2023/12/17 03:50:18;;;;;;;20.77;5.20;;;-0.10;99.90;;;;;;5013031;28;20234;-88
2023/12/17 03:52:45;;;;;;;6.00;3.92;;;-0.10;99.90;;;;;;4992378;28;21174;-87
2023/12/17 03:55:12;;;;;;;5.60;3.42;;;-0.10;99.90;;;;;;5011783;28;20202;-87
2023/12/17 03:57:37;;;;;;;6.28;3.28;;;-0.10;99.90;;;;;;4991652;28;20186;-88
2023/12/17 04:00:03;;;;;;;4.50;3.10;;;-0.10;99.90;;;;;;5011047;28;20186;-87
2023/12/17 04:02:29;;;;;;;2.10;1.93;;;0.00;99.90;;;;;;4999409;28;20187;-86
2023/12/17 04:04:55;;;;;;;8.55;3.95;;;0.00;99.90;;;;;;5015710;28;20552;-88
2023/12/17 04:07:20;;;;;;;5.07;3.83;;;0.00;99.90;;;;;;5007444;28;20202;-87
2023/12/17 04:09:47;;;;;;;5.30;3.57;;;0.00;99.90;;;;;;4997395;28;20234;-87
2023/12/17 04:12:14;;;;;;;33.03;5.13;;;-0.10;99.90;;;;;;5017917;28;20250;-86
2023/12/17 04:14:40;;;;;;;8.20;6.10;;;-0.10;99.90;;;;;;5016065;28;20207;-87
2023/12/17 04:17:07;;;;;;;10.82;5.03;;;0.00;99.90;;;;;;5015624;28;20195;-86
2023/12/17 04:19:32;;;;;;;7.65;4.80;;;0.00;99.90;;;;;;5017336;28;20174;-87
2023/12/17 04:21:58;;;;;;;10.73;5.10;;;0.00;99.90;;;;;;4994959;28;20243;-86
2023/12/17 04:24:24;;;;;;;6.60;4.77;;;0.00;99.90;;;;;;5016690;28;20214;-86
2023/12/17 04:26:49;;;;;;;17.20;5.15;;;-0.20;99.90;;;;;;5014181;28;20183;-86
2023/12/17 04:29:15;;;;;;;14.83;5.67;;;-0.20;99.90;;;;;;5015780;28;20221;-85
2023/12/17 04:31:40;;;;;;;9.27;6.57;;;-0.20;99.90;;;;;;5012229;28;20182;-84
2023/12/17 04:34:08;;;;;;;4.93;3.00;;;-0.30;99.90;;;;;;5013154;28;20200;-86
2023/12/17 04:36:34;;;;;;;12.60;5.22;;;-0.30;99.90;;;;;;5014695;28;20190;-86
2023/12/17 04:39:00;;;;;;;6.45;4.38;;;-0.30;99.90;;;;;;5010470;28;20188;-86
2023/12/17 04:41:25;;;;;;;7.83;4.30;;;-0.20;99.90;;;;;;5010638;28;20563;-85
2023/12/17 04:43:51;;;;;;;7.70;4.73;;;-0.20;99.90;;;;;;5013804;28;20229;-85
2023/12/17 04:46:16;;;;;;;6.53;5.37;;;-0.20;99.90;;;;;;5010503;28;20191;-86
2023/12/17 04:48:42;;;;;;;10.57;4.67;;;-0.10;99.90;;;;;;4993828;28;20193;-86
2023/12/17 04:51:07;;;;;;;11.33;4.83;;;-0.20;99.90;;;;;;5012354;28;20190;-86
2023/12/17 04:53:33;;;;;;;15.77;5.60;;;-0.20;99.90;;;;;;5013003;28;20214;-86
2023/12/17 04:55:58;;;;;;;10.33;4.07;;;-0.30;99.90;;;;;;4998360;28;20235;-86
2023/12/17 04:58:25;;;;;;;6.30;3.17;;;-0.30;99.90;;;;;;5011602;28;20186;-86
2023/12/17 05:00:50;;;;;;;5.10;4.53;;;-0.30;99.90;;;;;;5012693;28;20572;-86
2023/12/17 05:03:16;;;;;;;9.10;4.00;;;-0.30;99.90;;;;;;5006089;28;20190;-85
2023/12/17 05:05:41;;;;;;;4.40;3.90;;;-0.30;99.90;;;;;;5000161;28;20906;-86
2023/12/17 05:08:07;;;;;;;7.67;4.37;;;-0.40;99.90;;;;;;4999118;28;20183;-86
2023/12/17 05:10:32;;;;;;;5.60;4.10;;;-0.40;99.90;;;;;;5012854;28;20210;-86
2023/12/17 05:12:58;;;;;;;5.13;3.37;;;-0.40;99.90;;;;;;5016410;28;20191;-87
2023/12/17 05:15:23;;;;;;;5.37;3.00;;;-0.40;99.90;;;;;;5012923;28;20202;-87
2023/12/17 05:17:49;;;;;;;10.17;3.20;;;-0.30;99.90;;;;;;4996256;28;20187;-86
2023/12/17 05:20:14;;;;;;;3.50;2.70;;;-0.40;99.90;;;;;;4997617;28;20206;-85
2023/12/17 05:22:40;;;;;;;7.07;3.90;;;-0.40;99.90;;;;;;5009816;28;20221;-85
2023/12/17 05:25:07;;;;;;;4.20;2.83;;;-0.30;99.90;;;;;;5009477;28;20230;-85
2023/12/17 05:27:32;;;;;;;9.63;4.63;;;-0.40;99.90;;;;;;5010081;28;20537;-85
2023/12/17 05:29:58;;;;;;;7.43;3.90;;;-0.40;99.90;;;;;;5012000;28;20813;-85
2023/12/17 05:32:24;;;;;;;8.30;3.63;;;-0.50;99.90;;;;;;5079634;28;20412;-85
2023/12/17 05:34:49;;;;;;;5.40;4.47;;;-0.40;99.90;;;;;;5014052;28;20222;-85
2023/12/17 05:37:15;;;;;;;7.23;3.70;;;-0.40;99.90;;;;;;4995903;28;20210;-85
2023/12/17 05:39:40;;;;;;;4.17;2.80;;;-0.20;99.90;;;;;;4996528;28;20186;-86
2023/12/17 05:42:06;;;;;;;7.67;5.23;;;-0.10;99.90;;;;;;4992525;28;20186;-86
2023/12/17 05:44:31;;;;;;;6.90;4.80;;;-0.10;99.90;;;;;;5011481;28;20210;-86
2023/12/17 05:46:57;;;;;;;7.93;4.03;;;0.00;99.90;;;;;;5010345;28;20696;-87
2023/12/17 05:49:22;;;;;;;12.70;3.93;;;0.10;99.90;;;;;;5009591;28;20302;-85
2023/12/17 05:51:48;;;;;;;10.17;4.23;;;0.10;99.90;;;;;;5010644;28;20187;-86
2023/12/17 05:54:13;;;;;;;8.20;4.83;;;0.00;99.90;;;;;;4993450;28;20198;-85
2023/12/17 05:56:43;;;;;;;18.43;5.97;;;-0.10;99.90;;;;;;5011508;28;20230;-87
2023/12/17 05:59:09;;;;;;;28.40;3.72;;;-0.10;99.90;;;;;;5011582;28;20178;-87
2023/12/17 06:01:36;;;;;;;11.80;3.40;;;0.00;99.90;;;;;;5013139;28;20183;-85
2023/12/17 06:04:01;;;;;;;3.65;3.33;;;-0.10;99.90;;;;;;5012675;28;20206;-87
2023/12/17 06:06:27;;;;;;;7.00;4.10;;;-0.20;99.90;;;;;;4992677;28;20207;-85
2023/12/17 06:08:53;;;;;;;11.40;4.53;;;-0.40;99.90;;;;;;5006990;28;20297;-86
2023/12/17 06:11:18;;;;;;;10.40;6.20;;;-0.40;99.90;;;;;;5008563;28;21248;-86
2023/12/17 06:13:44;;;;;;;4.07;2.53;;;-0.40;99.90;;;;;;4988892;28;20788;-86
2023/12/17 06:16:10;;;;;;;7.10;4.22;;;-0.50;99.90;;;;;;5008065;28;20616;-87
2023/12/17 06:18:36;;;;;;;6.90;4.10;;;-0.50;99.90;;;;;;5008740;28;20475;-85
2023/12/17 06:21:04;;;;;;;4.65;3.47;;;-0.60;99.90;;;;;;5010410;28;20206;-88
2023/12/17 06:23:31;;;;;;;13.37;7.10;;;-0.60;99.90;;;;;;5010170;28;20277;-87
2023/12/17 06:25:57;;;;;;;12.77;5.45;;;-0.60;99.90;;;;;;5010295;28;20231;-86
2023/12/17 06:28:24;;;;;;;8.20;5.67;;;-0.60;99.90;;;;;;5012364;28;20178;-86
2023/12/17 06:30:49;;;;;;;8.35;4.63;;;-0.60;99.90;;;;;;5007697;28;20461;-85
2023/12/17 06:33:15;;;;;;;9.17;4.73;;;-0.50;99.90;;;;;;5010405;28;20189;-86
2023/12/17 06:35:40;;;;;;;9.20;3.80;;;-0.50;99.90;;;;;;4992954;28;20170;-86
2023/12/17 06:38:06;;;;;;;11.53;5.30;;;-0.50;99.90;;;;;;4995342;28;20842;-85
2023/12/17 06:40:32;;;;;;;7.20;6.13;;;-0.40;99.90;;;;;;5012567;28;20182;-85
2023/12/17 06:42:57;;;;;;;13.00;7.20;;;-0.40;99.90;;;;;;5007443;28;20182;-86
2023/12/17 06:45:23;;;;;;;7.50;6.13;;;-0.40;99.90;;;;;;5007171;28;20206;-84
2023/12/17 06:47:48;;;;;;;7.50;5.07;;;-0.40;99.90;;;;;;4989931;28;20448;-84
2023/12/17 06:50:14;;;;;;;12.67;4.53;;;-0.50;99.90;;;;;;4986791;28;20766;-84
2023/12/17 06:52:40;;;;;;;8.53;3.50;;;-0.50;99.90;;;;;;4997301;28;20178;-87
2023/12/17 06:55:06;;;;;;;5.97;3.77;;;-0.60;99.90;;;;;;4993461;28;20286;-82
2023/12/17 06:57:32;;;;;;;5.90;3.15;;;-0.60;99.90;;;;;;5006727;28;20179;-83
2023/12/17 06:59:57;;;;;;;12.53;6.20;;;-0.60;99.90;;;;;;5006886;28;20274;-83
2023/12/17 07:02:23;;;;;;;4.57;4.13;;;-0.60;99.90;;;;;;5009422;28;20729;-86
2023/12/17 07:04:48;;;;;;;6.43;4.27;;;-0.60;99.90;;;;;;5008773;28;21599;-84
2023/12/17 07:07:14;;;;;;;8.37;4.77;;;-0.60;99.90;;;;;;5008972;28;20195;-85
2023/12/17 07:09:39;;;;;;;11.10;3.63;;;-0.60;99.90;;;;;;4989850;28;20213;-86
2023/12/17 07:12:06;;;;;;;3.80;2.83;;;-0.60;99.90;;;;;;5008879;28;20175;-84
2023/12/17 07:14:31;;;;;;;6.28;3.63;;;-0.60;99.90;;;;;;4991902;28;20202;-84
2023/12/17 07:16:57;;;;;;;8.37;3.67;;;-0.50;99.90;;;;;;4992045;28;20181;-84
2023/12/17 07:19:22;;;;;;;12.77;4.70;;;-0.50;99.90;;;;;;4995914;28;20239;-84
2023/12/17 07:21:48;;;;;;;8.33;4.73;;;-0.40;99.90;;;;;;4990220;28;20671;-85
2023/12/17 07:24:13;;;;;;;7.20;4.00;;;-0.40;99.90;;;;;;4991847;28;20219;-86
2023/12/17 07:26:39;;;;;;;15.20;5.57;;;-0.30;99.90;;;;;;5008025;28;20194;-85
2023/12/17 07:29:04;;;;;;;15.60;5.77;;;-0.10;99.90;;;;;;5008033;28;20214;-87
2023/12/17 07:31:30;;;;;;;6.70;4.73;;;-0.30;99.90;;;;;;5005502;28;20189;-84
2023/12/17 07:33:56;;;;;;;8.53;4.17;;;-0.10;99.90;;;;;;5001559;28;20210;-84
2023/12/17 07:36:21;;;;;;;17.33;5.65;;;0.00;99.90;;;;;;4987179;28;20178;-84
2023/12/17 07:38:47;;;;;;;11.27;5.20;;;0.10;99.90;;;;;;5006891;28;20288;-84
2023/12/17 07:41:13;;;;;;;5.27;3.80;;;0.10;99.90;;;;;;4991076;28;20440;-84
2023/12/17 07:43:38;;;;;;;10.00;3.63;;;-0.20;99.90;;;;;;4985307;28;20580;-84
2023/12/17 07:46:04;;;;;;;10.77;3.90;;;-0.30;99.90;;;;;;4991384;28;20187;-83
2023/12/17 07:48:29;;;;;;;5.00;3.53;;;-0.40;99.90;;;;;;5006562;28;20772;-84
2023/12/17 07:50:55;;;;;;;11.17;4.43;;;-0.40;99.90;;;;;;5008735;28;20210;-84
2023/12/17 07:53:21;;;;;;;4.75;3.63;;;-0.50;99.90;;;;;;5008924;28;20268;-84
2023/12/17 07:55:47;;;;;;;9.43;5.87;;;-0.40;99.90;;;;;;5009282;28;20194;-84
2023/12/17 07:58:14;;;;;;;7.90;5.47;;;-0.10;99.90;;;;;;5005977;28;20436;-83
2023/12/17 08:00:39;;;;;;;8.60;5.25;;;0.00;99.90;;;;;;5006145;28;20239;-83
2023/12/17 08:03:05;;;;;;;11.30;6.20;;;0.20;99.90;;;;;;4994433;28;20183;-84
2023/12/17 08:05:30;;;;;;;8.43;4.30;;;0.20;99.90;;;;;;5011482;28;20183;-83
2023/12/17 08:07:56;;;;;;;14.03;5.23;;;0.40;99.90;;;;;;5008750;28;20798;-83
2023/12/17 08:10:21;;;;;;;10.73;6.27;;;0.50;99.90;;;;;;5002550;28;20216;-84
2023/12/17 08:12:47;;;;;;;11.67;5.93;;;0.60;99.90;;;;;;4995541;28;20186;-85
2023/12/17 08:15:12;;;;;;;9.60;5.53;;;0.80;99.90;;;;;;5012816;28;20479;-84
2023/12/17 08:17:38;;;;;;;18.00;8.80;;;1.20;99.90;;;;;;5012055;28;20281;-84
2023/12/17 08:20:04;;;;;;;12.50;5.47;;;1.80;99.90;;;;;;5010708;28;20285;-84
2023/12/17 08:22:29;;;;;;;12.02;7.32;;;2.80;99.90;;;;;;5009734;28;20229;-84
2023/12/17 08:24:55;;;;;;;16.47;9.50;;;3.60;99.90;;;;;;5008516;28;20380;-84
2023/12/17 08:27:20;;;;;;;12.57;5.53;;;4.40;99.90;;;;;;4999194;28;20202;-84
2023/12/17 08:29:47;;;;;;;12.37;6.47;;;5.00;99.90;;;;;;5008094;28;20289;-86
2023/12/17 08:32:14;;;;;;;7.85;5.30;;;4.80;99.90;;;;;;4993346;28;20189;-85
2023/12/17 08:34:40;;;;;;;9.00;4.80;;;4.50;99.90;;;;;;5006629;28;20285;-85
2023/12/17 08:37:05;;;;;;;8.80;6.27;;;4.00;99.90;;;;;;5009430;28;20241;-86
2023/12/17 08:39:31;;;;;;;11.57;6.40;;;4.30;99.90;;;;;;5011735;28;20315;-85
2023/12/17 08:41:57;;;;;;;9.53;6.40;;;3.90;99.90;;;;;;4989596;28;20806;-86
2023/12/17 08:44:25;;;;;;;10.25;6.57;;;4.60;99.90;;;;;;5010639;28;20611;-85
2023/12/17 08:46:51;;;;;;;12.13;6.63;;;5.90;99.90;;;;;;5007920;28;20198;-85
2023/12/17 08:49:17;;;;;;;7.03;5.45;;;6.90;99.90;;;;;;4986476;28;20203;-85
2023/12/17 08:51:43;;;;;;;8.60;6.17;;;6.90;99.90;;;;;;4992707;28;20190;-85
2023/12/17 08:54:12;;;;;;;6.80;4.47;;;6.90;99.90;;;;;;5008420;28;20529;-86
2023/12/17 08:56:39;;;;;;;8.75;5.78;;;7.50;99.90;;;;;;5009886;28;20185;-85
2023/12/17 08:59:04;;;;;;;12.13;6.35;;;8.30;99.90;;;;;;5007921;28;20202;-84
2023/12/17 09:01:30;;;;;;;9.43;5.10;;;7.90;99.90;;;;;;5003327;28;20190;-84
2023/12/17 09:03:55;;;;;;;8.90;5.93;;;7.00;99.90;;;;;;5008390;28;20285;-86
2023/12/17 09:06:21;;;;;;;8.33;3.90;;;6.80;99.90;;;;;;5011166;28;20716;-85
2023/12/17 09:08:46;;;;;;;6.40;4.07;;;7.40;99.90;;;;;;4988253;28;20190;-85
2023/12/17 09:11:12;;;;;;;7.80;3.90;;;8.10;99.90;;;;;;5003510;28;20190;-85
2023/12/17 09:13:38;;;;;;;6.47;4.90;;;8.80;99.90;;;;;;4999298;28;21660;-85
2023/12/17 09:16:04;;;;;;;6.27;4.13;;;9.30;99.90;;;;;;5006752;28;20885;-85
2023/12/17 09:18:29;;;;;;;6.75;3.35;;;10.30;99.90;;;;;;5001284;28;20557;-85
2023/12/17 09:20:55;;;;;;;4.23;2.90;;;10.90;99.90;;;;;;5003509;28;20273;-85
2023/12/17 09:23:21;;;;;;;8.57;3.87;;;11.30;99.90;;;;;;5002722;28;20217;-85
2023/12/17 09:25:47;;;;;;;7.70;3.90;;;11.70;99.90;;;;;;5003305;28;20445;-85
2023/12/17 09:28:12;;;;;;;6.50;2.90;;;12.10;99.90;;;;;;5005111;28;20209;-85
2023/12/17 09:30:38;;;;;;;8.30;3.50;;;12.40;99.90;;;;;;4987726;28;20314;-85
2023/12/17 09:33:03;;;;;;;6.13;3.00;;;11.60;99.90;;;;;;5005068;28;20202;-84
2023/12/17 09:35:29;;;;;;;6.87;3.73;;;11.60;99.90;;;;;;5007447;28;20198;-85
2023/12/17 09:37:54;;;;;;;7.47;3.97;;;10.60;99.90;;;;;;5006672;28;20187;-84
2023/12/17 09:40:20;;;;;;;5.03;4.30;;;9.20;99.90;;;;;;5003973;28;20190;-83
2023/12/17 09:42:52;;;;;;;5.97;4.40;;;8.30;99.90;;;;;;5005353;28;20203;-85
2023/12/17 09:45:18;;;;;;;7.32;4.15;;;7.40;99.90;;;;;;5006304;28;21232;-84
2023/12/17 09:47:44;;;;;;;7.55;4.57;;;6.90;99.90;;;;;;5005692;28;20713;-84
2023/12/17 09:50:10;;;;;;;6.13;2.70;;;6.70;99.90;;;;;;5008370;28;20218;-84
2023/12/17 09:52:41;;;;;;;3.83;3.42;;;6.40;99.90;;;;;;5006817;28;20442;-84
2023/12/17 09:55:07;;;;;;;7.70;3.42;;;6.20;99.90;;;;;;5007591;28;20263;-84
2023/12/17 09:57:33;;;;;;;8.73;3.67;;;;;;;;;;5005792;28;20232;-84
2023/12/17 09:59:58;;;;;;;3.03;2.20;;;6.30;99.90;;;;;;5007187;28;20484;-83
2023/12/17 10:02:24;;;;;;;5.90;3.10;;;6.20;99.90;;;;;;4989160;28;20450;-84
2023/12/17 10:04:49;;;;;;;3.73;3.37;;;6.20;99.90;;;;;;5009192;28;20267;-84
2023/12/17 10:07:15;;;;;;;7.63;3.30;;;6.00;99.90;;;;;;4995320;28;20197;-84
2023/12/17 10:09:40;;;;;;;8.63;2.90;;;5.80;99.90;;;;;;5008029;28;20300;-84
2023/12/17 10:12:06;;;;;;;9.00;4.47;;;5.80;99.90;;;;;;4992872;28;20187;-84
2023/12/17 10:14:32;;;;;;;5.03;4.20;;;5.80;99.90;;;;;;5006577;28;20213;-84
2023/12/17 10:16:59;;;;;;;7.73;4.53;;;5.80;99.90;;;;;;5008329;28;20183;-84
2023/12/17 10:19:25;;;;;;;9.77;4.50;;;5.80;99.90;;;;;;5001793;28;20195;-84
2023/12/17 10:21:51;;;;;;;6.37;5.00;;;5.60;99.90;;;;;;5009788;28;20186;-84
2023/12/17 10:24:18;;;;;;;20.73;5.00;;;5.40;99.90;;;;;;4987653;28;20457;-84
2023/12/17 10:26:44;;;;;;;14.95;4.85;;;5.40;99.90;;;;;;4989211;28;20270;-84
2023/12/17 10:29:15;;;;;;;14.10;5.68;;;5.30;99.90;;;;;;5008345;28;20668;-84
2023/12/17 10:31:41;;;;;;;5.63;4.50;;;5.20;99.90;;;;;;5003949;28;20185;-85
2023/12/17 10:34:22;;;;;;;8.13;4.70;;;5.10;99.90;;;;;;5003022;28;20190;-85
2023/12/17 10:36:49;;;;;;;7.40;4.75;;;5.00;99.90;;;;;;5004801;28;20266;-85
2023/12/17 10:39:17;;;;;;;9.18;5.65;;;5.00;99.90;;;;;;5010459;28;20198;-85
2023/12/17 10:41:43;;;;;;;11.45;5.53;;;5.00;99.90;;;;;;5013567;28;20183;-85
2023/12/17 10:44:13;;;;;;;6.22;4.15;;;5.10;99.90;;;;;;5014983;28;20221;-84
2023/12/17 10:46:42;;;;;;;9.38;5.45;;;5.20;99.90;;;;;;4994650;28;20189;-85
2023/12/17 10:49:08;;;;;;;10.82;6.25;;;5.30;99.90;;;;;;5034458;28;20711;-85
2023/12/17 10:51:37;;;;;;;11.75;6.18;;;5.50;99.90;;;;;;5003319;28;20186;-85
2023/12/17 10:54:02;;;;;;;11.00;6.40;;;5.70;99.90;;;;;;5012512;28;20217;-84
2023/12/17 10:56:34;;;;;;;7.17;5.13;;;5.60;99.90;;;;;;5010840;28;20178;-85
2023/12/17 10:59:03;;;;;;;10.32;5.45;;;5.70;99.90;;;;;;4995247;28;20182;-85
2023/12/17 11:01:30;;;;;;;8.38;5.25;;;5.60;99.90;;;;;;5012042;28;20183;-83
2023/12/17 11:03:56;;;;;;;13.07;5.95;;;5.50;99.90;;;;;;4993294;28;20256;-83
2023/12/17 11:06:22;;;;;;;7.65;4.65;;;5.30;99.90;;;;;;5006931;28;20166;-84
2023/12/17 11:08:47;;;;;;;6.93;4.20;;;5.30;99.90;;;;;;4998414;28;20213;-84
2023/12/17 11:11:14;;;;;;;8.07;5.13;;;5.30;99.90;;;;;;5011748;28;20182;-85
2023/12/17 11:13:40;;;;;;;6.63;4.65;;;5.20;99.90;;;;;;4994269;28;20222;-83
2023/12/17 11:16:25;;;;;;;7.47;5.03;;;5.40;99.90;;;;;;4994421;28;20191;-84
2023/12/17 11:18:51;;;;;;;14.88;4.68;;;5.50;99.90;;;;;;4998011;28;20452;-84
2023/12/17 11:21:18;;;;;;;6.57;5.22;;;5.60;99.90;;;;;;5009212;28;20219;-85
2023/12/17 11:23:51;;;;;;;7.10;4.65;;;5.80;99.90;;;;;;4994184;28;20359;-84
2023/12/17 11:26:18;;;;;;;7.57;4.88;;;5.90;99.90;;;;;;4991271;28;20190;-86
2023/12/17 11:28:48;;;;;;;6.90;4.03;;;5.90;99.90;;;;;;5011187;28;20170;-87
2023/12/17 11:31:13;;;;;;;5.60;4.43;;;6.00;99.90;;;;;;4995023;28;20279;-86
2023/12/17 11:33:40;;;;;;;6.80;5.23;;;6.50;99.90;;;;;;5006385;28;20728;-85
2023/12/17 11:36:10;;;;;;;9.90;5.72;;;6.70;99.90;;;;;;4985171;28;20431;-85
2023/12/17 11:38:36;;;;;;;7.65;5.10;;;6.50;99.90;;;;;;5003399;28;20187;-84
2023/12/17 11:41:05;;;;;;;5.72;4.22;;;6.30;99.90;;;;;;5005938;28;20701;-85
2023/12/17 11:43:33;;;;;;;5.63;4.07;;;6.30;99.90;;;;;;5009687;28;20826;-84
2023/12/17 11:45:59;;;;;;;7.03;3.63;;;6.40;99.90;;;;;;5023198;28;20258;-86
2023/12/17 11:48:26;;;;;;;13.70;4.93;;;6.50;99.90;;;;;;5008315;28;20726;-86
2023/12/17 11:50:56;;;;;;;7.00;4.65;;;6.70;99.90;;;;;;5006438;28;20241;-84
2023/12/17 11:53:26;;;;;;;7.18;4.05;;;6.90;99.90;;;;;;5011119;28;20235;-84
2023/12/17 11:55:53;;;;;;;8.77;5.47;;;7.20;99.90;;;;;;5012676;28;20190;-84
2023/12/17 11:58:20;;;;;;;11.25;5.05;;;7.50;99.90;;;;;;4996246;28;20182;-87
2023/12/17 12:01:05;;;;;;;11.07;4.38;;;7.70;99.90;;;;;;4993545;28;20186;-84
2023/12/17 12:03:31;;;;;;;8.15;4.60;;;7.90;99.90;;;;;;5023573;28;20206;-85
2023/12/17 12:05:59;;;;;;;6.40;4.80;;;7.90;99.90;;;;;;5011806;28;20179;-84
2023/12/17 12:08:41;;;;;;;5.90;4.15;;;8.00;99.90;;;;;;4990656;28;20201;-86
2023/12/17 12:11:29;;;;;;;10.68;4.60;;;7.70;99.90;;;;;;5011237;28;20209;-85
2023/12/17 12:13:56;;;;;;;7.13;5.50;;;7.50;99.90;;;;;;4995378;28;20211;-84
2023/12/17 12:16:22;;;;;;;7.05;4.68;;;7.30;99.90;;;;;;5008337;28;20182;-84
2023/12/17 12:18:59;;;;;;;6.47;5.60;;;7.20;99.90;;;;;;4996817;28;20186;-83
2023/12/17 12:21:24;;;;;;;10.00;5.53;;;7.30;99.90;;;;;;4992769;28;20275;-83
2023/12/17 12:23:54;;;;;;;6.43;4.93;;;7.30;99.90;;;;;;5005469;28;20215;-83
2023/12/17 12:26:20;;;;;;;5.65;4.40;;;7.30;99.90;;;;;;5011716;28;20175;-84
2023/12/17 12:28:50;;;;;;;10.88;7.00;;;7.30;99.90;;;;;;4992749;28;20194;-83
2023/12/17 12:31:16;;;;;;;8.82;5.15;;;7.30;99.90;;;;;;5010725;28;20178;-85
2023/12/17 12:33:53;;;;;;;7.35;5.13;;;7.30;99.90;;;;;;4996774;28;20579;-85
2023/12/17 12:36:19;;;;;;;16.35;6.32;;;7.40;99.90;;;;;;4997534;28;20687;-84
2023/12/17 12:38:45;;;;;;;6.47;4.60;;;7.30;99.90;;;;;;5009571;28;20191;-84
2023/12/17 12:41:14;;;;;;;6.77;4.60;;;7.30;99.90;;;;;;5007738;28;20186;-85
2023/12/17 12:43:40;;;;;;;4.15;3.72;;;7.30;99.90;;;;;;5011860;28;20245;-83
2023/12/17 12:46:06;;;;;;;5.27;3.97;;;7.20;99.90;;;;;;5005312;28;20310;-82
2023/12/17 12:48:33;;;;;;;5.95;4.20;;;7.10;99.90;;;;;;5010210;28;20183;-83